地図

経路データ

SID SEASON NUMBER BASIN SUBBASIN NAME ISO_TIME NATURE LAT LON WMO_WIND WMO_PRES WMO_AGENCY TRACK_TYPE DIST2LAND LANDFALL IFLAG USA_AGENCY USA_ATCF_ID USA_LAT USA_LON USA_RECORD USA_STATUS USA_WIND USA_PRES USA_SSHS USA_R34_NE USA_R34_SE USA_R34_SW USA_R34_NW USA_R50_NE USA_R50_SE USA_R50_SW USA_R50_NW USA_R64_NE USA_R64_SE USA_R64_SW USA_R64_NW USA_POCI USA_ROCI USA_RMW USA_EYE TOKYO_LAT TOKYO_LON TOKYO_GRADE TOKYO_WIND TOKYO_PRES TOKYO_R50_DIR TOKYO_R50_LONG TOKYO_R50_SHORT TOKYO_R30_DIR TOKYO_R30_LONG TOKYO_R30_SHORT TOKYO_LAND CMA_LAT CMA_LON CMA_CAT CMA_WIND CMA_PRES HKO_LAT HKO_LON HKO_CAT HKO_WIND HKO_PRES NEWDELHI_LAT NEWDELHI_LON NEWDELHI_GRADE NEWDELHI_WIND NEWDELHI_PRES NEWDELHI_CI NEWDELHI_DP NEWDELHI_POCI REUNION_LAT REUNION_LON REUNION_TYPE REUNION_WIND REUNION_PRES REUNION_TNUM REUNION_CI REUNION_RMW REUNION_R34_NE REUNION_R34_SE REUNION_R34_SW REUNION_R34_NW REUNION_R50_NE REUNION_R50_SE REUNION_R50_SW REUNION_R50_NW REUNION_R64_NE REUNION_R64_SE REUNION_R64_SW REUNION_R64_NW BOM_LAT BOM_LON BOM_TYPE BOM_WIND BOM_PRES BOM_TNUM BOM_CI BOM_RMW BOM_R34_NE BOM_R34_SE BOM_R34_SW BOM_R34_NW BOM_R50_NE BOM_R50_SE BOM_R50_SW BOM_R50_NW BOM_R64_NE BOM_R64_SE BOM_R64_SW BOM_R64_NW BOM_ROCI BOM_POCI BOM_EYE BOM_POS_METHOD BOM_PRES_METHOD NADI_LAT NADI_LON NADI_CAT NADI_WIND NADI_PRES WELLINGTON_LAT WELLINGTON_LON WELLINGTON_WIND WELLINGTON_PRES DS824_LAT DS824_LON DS824_STAGE DS824_WIND DS824_PRES TD9636_LAT TD9636_LON TD9636_STAGE TD9636_WIND TD9636_PRES TD9635_LAT TD9635_LON TD9635_WIND TD9635_PRES TD9635_ROCI NEUMANN_LAT NEUMANN_LON NEUMANN_CLASS NEUMANN_WIND NEUMANN_PRES MLC_LAT MLC_LON MLC_CLASS MLC_WIND MLC_PRES USA_GUST BOM_GUST BOM_GUST_PER REUNION_GUST REUNION_GUST_PER USA_SEAHGT USA_SEARAD_NE USA_SEARAD_SE USA_SEARAD_SW USA_SEARAD_NW STORM_SPEED STORM_DIR
1911122N08142 1911 34 WP MM NOT_NAMED 1911-05-01 16:00:00 NR 7.60000 141.500 main 1094 1080 __________O___ -1 7.60000 141.500 7 12 275
1911122N08142 1911 34 WP MM NOT_NAMED 1911-05-01 18:00:00 NR 7.63179 141.104 main 1080 1072 __________P___ -1 7.63179 141.104 7 12 275
1911122N08142 1911 34 WP MM NOT_NAMED 1911-05-01 21:00:00 NR 7.67969 140.522 main 1072 1055 __________P___ -1 7.67968 140.522 7 11 275
1911122N08142 1911 34 WP MM NOT_NAMED 1911-05-02 00:00:00 NR 7.72911 139.967 main 1055 1043 __________P___ -1 7.72911 139.967 7 11 276
1911122N08142 1911 34 WP MM NOT_NAMED 1911-05-02 03:00:00 NR 7.78157 139.457 main 1043 1034 __________P___ -1 7.78157 139.457 7 10 276
1911122N08142 1911 34 WP MM NOT_NAMED 1911-05-02 04:00:00 NR 7.80000 139.300 main 1034 1023 __________O___ -1 7.80000 139.300 7 9 277
1911122N08142 1911 34 WP MM NOT_NAMED 1911-05-02 06:00:00 NR 7.83873 139.007 main 1023 1019 __________P___ -1 7.83873 139.007 7 8 279
1911122N08142 1911 34 WP MM NOT_NAMED 1911-05-02 09:00:00 NR 7.90323 138.605 main 1019 1012 __________P___ -1 7.90323 138.605 7 8 280
1911122N08142 1911 34 WP MM NOT_NAMED 1911-05-02 12:00:00 NR 7.97827 138.224 main 1016 1007 __________P___ -1 7.97827 138.224 7 8 282
1911122N08142 1911 34 WP MM NOT_NAMED 1911-05-02 15:00:00 NR 8.06691 137.836 main 1015 1013 __________P___ -1 8.06691 137.836 7 8 283
1911122N08142 1911 34 WP MM NOT_NAMED 1911-05-02 16:00:00 NR 8.10000 137.700 main 1013 1008 __________O___ -1 8.10000 137.700 7 9 283
1911122N08142 1911 34 WP MM NOT_NAMED 1911-05-02 18:00:00 NR 8.16401 137.400 main 1017 1009 __________P___ -1 8.16401 137.400 7 9 283
1911122N08142 1911 34 WP MM NOT_NAMED 1911-05-02 21:00:00 NR 8.27249 136.932 main 1018 1014 __________P___ -1 8.27249 136.932 7 10 284
1911122N08142 1911 34 WP MM NOT_NAMED 1911-05-03 00:00:00 NR 8.39869 136.449 main 1023 1022 __________P___ -1 8.39869 136.449 7 10 286
1911122N08142 1911 34 WP MM NOT_NAMED 1911-05-03 03:00:00 NR 8.54578 135.962 main 1031 1018 __________P___ -1 8.54578 135.962 7 10 287
1911122N08142 1911 34 WP MM NOT_NAMED 1911-05-03 04:00:00 NR 8.60000 135.800 main 1018 986 __________O___ -1 8.60000 135.800 4 10 290
1911122N08142 1911 34 WP MM NOT_NAMED 1911-05-03 06:00:00 NR 8.72139 135.476 main 986 934 __________P___ -1 8.72139 135.476 4 10 292
1911122N08142 1911 34 WP MM NOT_NAMED 1911-05-03 09:00:00 NR 8.92258 134.989 main 934 883 __________P___ -1 8.92258 134.989 4 10 293
1911122N08142 1911 34 WP MM NOT_NAMED 1911-05-03 12:00:00 NR 9.13278 134.510 main 883 833 __________P___ -1 9.13278 134.510 4 10 294
1911122N08142 1911 34 WP MM NOT_NAMED 1911-05-03 15:00:00 NR 9.33632 134.048 main 833 825 __________P___ -1 9.33632 134.048 4 10 294
1911122N08142 1911 34 WP MM NOT_NAMED 1911-05-03 16:00:00 NR 9.40000 133.900 main 825 796 __________O___ -1 9.40000 133.900 4 9 291
1911122N08142 1911 34 WP MM NOT_NAMED 1911-05-03 18:00:00 NR 9.50066 133.624 main 796 756 __________P___ -1 9.50066 133.624 4 8 290
1911122N08142 1911 34 WP MM NOT_NAMED 1911-05-03 21:00:00 NR 9.63897 133.229 main 756 721 __________P___ -1 9.63897 133.229 4 8 290
1911122N08142 1911 34 WP MM NOT_NAMED 1911-05-04 00:00:00 NR 9.77880 132.840 main 721 681 __________P___ -1 9.77880 132.840 4 8 291
1911122N08142 1911 34 WP MM NOT_NAMED 1911-05-04 03:00:00 NR 9.93890 132.440 main 681 672 __________P___ -1 9.93890 132.440 4 9 293
1911122N08142 1911 34 WP MM NOT_NAMED 1911-05-04 04:00:00 NR 10.0000 132.300 main 672 642 __________O___ -1 10.0000 132.300 4 10 295
1911122N08142 1911 34 WP MM NOT_NAMED 1911-05-04 06:00:00 NR 10.1413 131.990 main 642 596 __________P___ -1 10.1413 131.990 4 10 296
1911122N08142 1911 34 WP MM NOT_NAMED 1911-05-04 09:00:00 NR 10.3783 131.506 main 596 549 __________P___ -1 10.3783 131.506 4 11 297
1911122N08142 1911 34 WP MM NOT_NAMED 1911-05-04 12:00:00 NR 10.6372 131.018 main 549 508 __________P___ -1 10.6372 131.018 4 11 299
1911122N08142 1911 34 WP MM NOT_NAMED 1911-05-04 15:00:00 NR 10.9084 130.549 main 508 502 __________P___ -1 10.9084 130.549 4 11 301
1911122N08142 1911 34 WP MM NOT_NAMED 1911-05-04 16:00:00 NR 11.0000 130.400 main 502 470 __________O___ -1 11.0000 130.400 4 10 303
1911122N08142 1911 34 WP MM NOT_NAMED 1911-05-04 18:00:00 NR 11.1721 130.127 main 470 428 __________P___ -1 11.1721 130.127 4 9 304
1911122N08142 1911 34 WP MM NOT_NAMED 1911-05-04 21:00:00 NR 11.4367 129.743 main 428 400 __________P___ -1 11.4367 129.743 4 9 306
1911122N08142 1911 34 WP MM NOT_NAMED 1911-05-05 00:00:00 NR 11.7117 129.378 main 400 366 __________P___ -1 11.7117 129.378 4 9 309
1911122N08142 1911 34 WP MM NOT_NAMED 1911-05-05 03:00:00 NR 12.0003 129.020 main 366 359 __________P___ -1 12.0003 129.020 4 9 310
1911122N08142 1911 34 WP MM NOT_NAMED 1911-05-05 04:00:00 NR 12.1000 128.900 main 359 343 __________O___ -1 12.1000 128.900 4 9 310
1911122N08142 1911 34 WP MM NOT_NAMED 1911-05-05 06:00:00 NR 12.2972 128.652 main 347 307 __________P___ -1 12.2972 128.652 4 9 310
1911122N08142 1911 34 WP MM NOT_NAMED 1911-05-05 09:00:00 NR 12.6056 128.281 main 307 272 __________P___ -1 12.6056 128.281 4 10 311
1911122N08142 1911 34 WP MM NOT_NAMED 1911-05-05 12:00:00 NR 12.9319 127.907 main 272 249 __________P___ -1 12.9319 127.907 4 10 313
1911122N08142 1911 34 WP MM NOT_NAMED 1911-05-05 15:00:00 NR 13.2791 127.528 main 249 246 __________P___ -1 13.2791 127.528 4 10 313
1911122N08142 1911 34 WP MM NOT_NAMED 1911-05-05 16:00:00 NR 13.4000 127.400 main 246 233 __________O___ -1 13.4000 127.400 4 11 314
1911122N08142 1911 34 WP MM NOT_NAMED 1911-05-05 18:00:00 NR 13.6601 127.121 main 241 233 __________P___ -1 13.6601 127.121 4 12 314
1911122N08142 1911 34 WP MM NOT_NAMED 1911-05-05 21:00:00 NR 14.0695 126.696 main 241 212 __________P___ -1 14.0695 126.696 4 12 315
1911122N08142 1911 34 WP MM NOT_NAMED 1911-05-06 00:00:00 NR 14.4822 126.284 main 215 190 __________P___ -1 14.4822 126.284 4 11 317
1911122N08142 1911 34 WP MM NOT_NAMED 1911-05-06 03:00:00 NR 14.8765 125.911 main 196 194 __________P___ -1 14.8765 125.911 4 11 318
1911122N08142 1911 34 WP MM NOT_NAMED 1911-05-06 04:00:00 NR 15.0000 125.800 main 194 193 __________O___ -1 15.0000 125.800 4 9 319
1911122N08142 1911 34 WP MM NOT_NAMED 1911-05-06 06:00:00 NR 15.2173 125.607 main 193 193 __________P___ -1 15.2173 125.607 4 8 321
1911122N08142 1911 34 WP MM NOT_NAMED 1911-05-06 09:00:00 NR 15.5181 125.362 main 205 199 __________P___ -1 15.5181 125.362 4 7 323
1911122N08142 1911 34 WP MM NOT_NAMED 1911-05-06 12:00:00 NR 15.8055 125.153 main 223 219 __________P___ -1 15.8055 125.153 4 7 327
1911122N08142 1911 34 WP MM NOT_NAMED 1911-05-06 15:00:00 NR 16.0981 124.963 main 246 243 __________P___ -1 16.0981 124.963 4 7 328
1911122N08142 1911 34 WP MM NOT_NAMED 1911-05-06 16:00:00 NR 16.2000 124.900 main 254 251 __________O___ -1 16.2000 124.900 4 8 328
1911122N08142 1911 34 WP MM NOT_NAMED 1911-05-06 18:00:00 NR 16.4166 124.758 main 251 223 __________P___ -1 16.4166 124.758 4 8 329
1911122N08142 1911 34 WP MM NOT_NAMED 1911-05-06 21:00:00 NR 16.7541 124.552 main 223 202 __________P___ -1 16.7541 124.552 4 8 331
1911122N08142 1911 34 WP MM NOT_NAMED 1911-05-07 00:00:00 NR 17.1066 124.353 main 202 183 __________P___ -1 17.1066 124.353 4 8 333
1911122N08142 1911 34 WP MM NOT_NAMED 1911-05-07 03:00:00 NR 17.4742 124.162 main 189 178 __________P___ -1 17.4742 124.162 4 8 334
1911122N08142 1911 34 WP MM NOT_NAMED 1911-05-07 04:00:00 NR 17.6000 124.100 main 182 175 __________O___ -1 17.6000 124.100 4 9 334
1911122N08142 1911 34 WP MM NOT_NAMED 1911-05-07 06:00:00 NR 17.8605 123.962 main 182 158 __________P___ -1 17.8605 123.962 4 9 334
1911122N08142 1911 34 WP MM NOT_NAMED 1911-05-07 09:00:00 NR 18.2640 123.761 main 158 137 __________P___ -1 18.2640 123.761 4 9 336
1911122N08142 1911 34 WP MM NOT_NAMED 1911-05-07 12:00:00 NR 18.6717 123.581 main 141 133 __________P___ -1 18.6717 123.581 4 9 339
1911122N08142 1911 34 WP MM NOT_NAMED 1911-05-07 15:00:00 NR 19.0709 123.437 main 139 139 __________P___ -1 19.0709 123.437 4 8 342
1911122N08142 1911 34 WP MM NOT_NAMED 1911-05-07 16:00:00 NR 19.2000 123.400 main 146 146 __________O___ -1 19.2000 123.400 4 8 342
1911122N08142 1911 34 WP MM NOT_NAMED 1911-05-07 18:00:00 NR 19.4289 123.320 main 153 153 __________P___ -1 19.4289 123.320 4 7 345
1911122N08142 1911 34 WP MM NOT_NAMED 1911-05-07 21:00:00 NR 19.7593 123.238 main 182 182 __________P___ -1 19.7593 123.238 4 7 352
1911122N08142 1911 34 WP MM NOT_NAMED 1911-05-08 00:00:00 NR 20.0965 123.215 main 212 212 __________P___ -1 20.0965 123.215 4 7 2
1911122N08142 1911 34 WP MM NOT_NAMED 1911-05-08 03:00:00 NR 20.4656 123.264 main 257 257 __________P___ -1 20.4656 123.264 4 8 9
1911122N08142 1911 34 WP MM NOT_NAMED 1911-05-08 04:00:00 NR 20.6000 123.300 main 267 267 __________O___ -1 20.6000 123.300 4 9 17
1911122N08142 1911 34 WP MM NOT_NAMED 1911-05-08 06:00:00 NR 20.9071 123.403 main 281 277 __________P___ -1 20.9071 123.403 4 10 21
1911122N08142 1911 34 WP MM NOT_NAMED 1911-05-08 09:00:00 NR 21.4057 123.628 main 284 284 __________P___ -1 21.4057 123.628 4 11 25
1911122N08142 1911 34 WP MM NOT_NAMED 1911-05-08 12:00:00 NR 21.9247 123.906 main 289 284 __________P___ -1 21.9247 123.906 4 12 27
1911122N08142 1911 34 WP MM NOT_NAMED 1911-05-08 15:00:00 NR 22.4361 124.203 main 297 294 __________P___ -1 22.4361 124.203 4 12 28
1911122N08142 1911 34 WP MM NOT_NAMED 1911-05-08 16:00:00 NR 22.6000 124.300 main 302 300 __________O___ -1 22.6000 124.300 4 10 27
1911122N08142 1911 34 WP MM NOT_NAMED 1911-05-08 18:00:00 NR 22.8791 124.445 main 307 305 __________P___ -1 22.8791 124.445 4 9 26
1911122N08142 1911 34 WP MM NOT_NAMED 1911-05-08 21:00:00 NR 23.2784 124.660 main 314 309 __________P___ -1 23.2784 124.660 4 9 27
1911122N08142 1911 34 WP MM NOT_NAMED 1911-05-09 00:00:00 NR 23.6855 124.899 main 317 314 __________P___ -1 23.6855 124.899 4 10 29
1911122N08142 1911 34 WP MM NOT_NAMED 1911-05-09 03:00:00 NR 24.1349 125.188 main 337 335 __________P___ -1 24.1349 125.188 4 11 31
1911122N08142 1911 34 WP MM NOT_NAMED 1911-05-09 04:00:00 NR 24.3000 125.300 main 342 339 __________O___ -1 24.3000 125.300 4 13 32
1911122N08142 1911 34 WP MM NOT_NAMED 1911-05-09 06:00:00 NR 24.6657 125.552 main 364 363 __________P___ -1 24.6657 125.552 4 14 33
1911122N08142 1911 34 WP MM NOT_NAMED 1911-05-09 09:00:00 NR 25.2646 125.988 main 403 403 __________P___ -1 25.2646 125.988 4 15 34
1911122N08142 1911 34 WP MM NOT_NAMED 1911-05-09 12:00:00 NR 25.9072 126.480 main 462 462 __________P___ -1 25.9072 126.480 4 16 35
1911122N08142 1911 34 WP MM NOT_NAMED 1911-05-09 15:00:00 NR 26.5750 127.014 main 531 531 __________P___ -1 26.5750 127.014 4 17 36
1911122N08142 1911 34 WP MM NOT_NAMED 1911-05-09 16:00:00 NR 26.8000 127.200 main 557 502 __________O___ -1 26.8000 127.200 4 17 37
1911122N08142 1911 34 WP MM NOT_NAMED 1911-05-09 18:00:00 NR 27.2506 127.579 main 502 415 __________P___ -1 27.2506 127.579 4 17 37
1911122N08142 1911 34 WP MM NOT_NAMED 1911-05-09 21:00:00 NR 27.9267 128.166 main 415 319 __________P___ -1 27.9267 128.166 4 17 38
1911122N08142 1911 34 WP MM NOT_NAMED 1911-05-10 00:00:00 NR 28.6022 128.772 main 319 225 __________P___ -1 28.6022 128.772 4 17 39
1911122N08142 1911 34 WP MM NOT_NAMED 1911-05-10 03:00:00 NR 29.2760 129.391 main 225 197 __________P___ -1 29.2760 129.391 4 17 39
1911122N08142 1911 34 WP MM NOT_NAMED 1911-05-10 04:00:00 NR 29.5000 129.600 main 197 __________O___ -1 29.5000 129.600 4 17 39

デジタル台風データ・検索

IBTrACS Databaseについて

本データベースは、米国NOAAが公開する1842年以降の世界の熱帯低気圧のベストトラックデータアーカイブInternational Best Track Archive for Climate Stewardship (IBTrACS)を、ウェブで閲覧しやすい形式に変換したものです。

最終更新日:2021-11-26